sensor_id;sensor_type;location;lat;lon;timestamp;temperature;humidity
26212;DHT22;13951;49.516;6.094;2023-03-14T00:01:20;10.00;99.90
26212;DHT22;13951;49.516;6.094;2023-03-14T00:03:53;9.90;99.90
26212;DHT22;13951;49.516;6.094;2023-03-14T00:06:27;9.90;99.90
26212;DHT22;13951;49.516;6.094;2023-03-14T00:09:00;9.90;99.90
26212;DHT22;13951;49.516;6.094;2023-03-14T00:11:33;9.90;99.90
26212;DHT22;13951;49.516;6.094;2023-03-14T00:14:06;9.90;99.90
26212;DHT22;13951;49.516;6.094;2023-03-14T00:16:38;9.90;99.90
26212;DHT22;13951;49.516;6.094;2023-03-14T00:19:11;9.90;99.90
26212;DHT22;13951;49.516;6.094;2023-03-14T00:21:44;10.00;99.90
26212;DHT22;13951;49.516;6.094;2023-03-14T00:24:17;10.00;99.90
26212;DHT22;13951;49.516;6.094;2023-03-14T00:26:50;10.00;99.90
26212;DHT22;13951;49.516;6.094;2023-03-14T00:29:22;10.00;99.90
26212;DHT22;13951;49.516;6.094;2023-03-14T00:31:55;9.90;99.90
26212;DHT22;13951;49.516;6.094;2023-03-14T00:34:30;10.00;99.90
26212;DHT22;13951;49.516;6.094;2023-03-14T00:37:02;10.00;99.90
26212;DHT22;13951;49.516;6.094;2023-03-14T00:39:35;10.00;99.90
26212;DHT22;13951;49.516;6.094;2023-03-14T00:42:08;10.00;99.90
26212;DHT22;13951;49.516;6.094;2023-03-14T00:44:41;10.00;99.90
26212;DHT22;13951;49.516;6.094;2023-03-14T00:47:14;10.00;99.90
26212;DHT22;13951;49.516;6.094;2023-03-14T00:49:48;10.00;99.90
26212;DHT22;13951;49.516;6.094;2023-03-14T00:52:20;10.00;99.90
26212;DHT22;13951;49.516;6.094;2023-03-14T00:54:53;10.10;99.90
26212;DHT22;13951;49.516;6.094;2023-03-14T00:57:26;10.00;99.90
26212;DHT22;13951;49.516;6.094;2023-03-14T00:59:59;10.10;99.90
26212;DHT22;13951;49.516;6.094;2023-03-14T01:02:32;10.10;99.90
26212;DHT22;13951;49.516;6.094;2023-03-14T01:05:05;10.10;99.90
26212;DHT22;13951;49.516;6.094;2023-03-14T01:07:39;10.10;99.90
26212;DHT22;13951;49.516;6.094;2023-03-14T01:10:12;10.10;99.90
26212;DHT22;13951;49.516;6.094;2023-03-14T01:12:45;10.10;99.90
26212;DHT22;13951;49.516;6.094;2023-03-14T01:15:18;10.00;99.90
26212;DHT22;13951;49.516;6.094;2023-03-14T01:17:51;10.00;99.90
26212;DHT22;13951;49.516;6.094;2023-03-14T01:20:25;10.00;99.90
26212;DHT22;13951;49.516;6.094;2023-03-14T01:22:59;10.00;99.90
26212;DHT22;13951;49.516;6.094;2023-03-14T01:25:32;9.90;99.90
26212;DHT22;13951;49.516;6.094;2023-03-14T01:28:05;9.90;99.90
26212;DHT22;13951;49.516;6.094;2023-03-14T01:30:37;9.90;99.90
26212;DHT22;13951;49.516;6.094;2023-03-14T01:33:10;9.90;99.90
26212;DHT22;13951;49.516;6.094;2023-03-14T01:35:45;9.80;99.90
26212;DHT22;13951;49.516;6.094;2023-03-14T01:38:19;9.70;99.90
26212;DHT22;13951;49.516;6.094;2023-03-14T01:40:52;9.70;99.90
26212;DHT22;13951;49.516;6.094;2023-03-14T01:43:25;9.60;99.90
26212;DHT22;13951;49.516;6.094;2023-03-14T01:48:54;9.50;99.90
26212;DHT22;13951;49.516;6.094;2023-03-14T01:54:14;9.40;99.90
26212;DHT22;13951;49.516;6.094;2023-03-14T01:56:53;9.40;99.90
26212;DHT22;13951;49.516;6.094;2023-03-14T01:59:30;9.30;99.90
26212;DHT22;13951;49.516;6.094;2023-03-14T02:02:06;9.30;99.90
26212;DHT22;13951;49.516;6.094;2023-03-14T02:04:41;9.20;99.90
26212;DHT22;13951;49.516;6.094;2023-03-14T02:07:49;9.20;99.90
26212;DHT22;13951;49.516;6.094;2023-03-14T02:10:30;9.20;99.90
26212;DHT22;13951;49.516;6.094;2023-03-14T02:13:06;9.20;99.90
26212;DHT22;13951;49.516;6.094;2023-03-14T02:15:47;9.20;99.90
26212;DHT22;13951;49.516;6.094;2023-03-14T02:18:44;9.10;99.90
26212;DHT22;13951;49.516;6.094;2023-03-14T02:21:47;9.10;99.90
26212;DHT22;13951;49.516;6.094;2023-03-14T02:24:38;9.10;99.90
26212;DHT22;13951;49.516;6.094;2023-03-14T02:27:17;9.00;99.90
26212;DHT22;13951;49.516;6.094;2023-03-14T02:29:54;9.00;99.90
26212;DHT22;13951;49.516;6.094;2023-03-14T02:32:33;9.00;99.90
26212;DHT22;13951;49.516;6.094;2023-03-14T02:35:11;9.00;99.90
26212;DHT22;13951;49.516;6.094;2023-03-14T02:37:49;9.00;99.90
26212;DHT22;13951;49.516;6.094;2023-03-14T02:40:23;9.00;99.90
26212;DHT22;13951;49.516;6.094;2023-03-14T02:42:58;9.00;99.90
26212;DHT22;13951;49.516;6.094;2023-03-14T02:51:16;9.00;99.90
26212;DHT22;13951;49.516;6.094;2023-03-14T02:53:52;8.90;99.90
26212;DHT22;13951;49.516;6.094;2023-03-14T02:56:27;8.90;99.90
26212;DHT22;13951;49.516;6.094;2023-03-14T02:59:03;8.90;99.90
26212;DHT22;13951;49.516;6.094;2023-03-14T03:01:56;8.90;99.90
26212;DHT22;13951;49.516;6.094;2023-03-14T03:04:31;8.90;99.90
26212;DHT22;13951;49.516;6.094;2023-03-14T03:07:03;8.90;99.90
26212;DHT22;13951;49.516;6.094;2023-03-14T03:09:36;8.90;99.90
26212;DHT22;13951;49.516;6.094;2023-03-14T03:12:10;8.90;99.90
26212;DHT22;13951;49.516;6.094;2023-03-14T03:14:43;8.90;99.90
26212;DHT22;13951;49.516;6.094;2023-03-14T03:17:16;8.90;99.90
26212;DHT22;13951;49.516;6.094;2023-03-14T03:19:49;8.80;99.90
26212;DHT22;13951;49.516;6.094;2023-03-14T03:22:22;8.80;99.90
26212;DHT22;13951;49.516;6.094;2023-03-14T03:24:55;8.80;99.90
26212;DHT22;13951;49.516;6.094;2023-03-14T03:27:33;8.80;99.90
26212;DHT22;13951;49.516;6.094;2023-03-14T03:30:07;8.80;99.90
26212;DHT22;13951;49.516;6.094;2023-03-14T03:32:40;8.80;99.90
26212;DHT22;13951;49.516;6.094;2023-03-14T03:35:13;8.80;99.90
26212;DHT22;13951;49.516;6.094;2023-03-14T03:37:47;8.80;99.90
26212;DHT22;13951;49.516;6.094;2023-03-14T03:40:20;8.80;99.90
26212;DHT22;13951;49.516;6.094;2023-03-14T03:42:54;8.70;99.90
26212;DHT22;13951;49.516;6.094;2023-03-14T03:45:26;8.70;99.90
26212;DHT22;13951;49.516;6.094;2023-03-14T03:48:01;8.70;99.90
26212;DHT22;13951;49.516;6.094;2023-03-14T03:50:34;8.70;99.90
26212;DHT22;13951;49.516;6.094;2023-03-14T03:53:07;8.60;99.90
26212;DHT22;13951;49.516;6.094;2023-03-14T03:55:41;8.60;99.90
26212;DHT22;13951;49.516;6.094;2023-03-14T03:58:16;8.60;99.90
26212;DHT22;13951;49.516;6.094;2023-03-14T04:00:49;8.60;99.90
26212;DHT22;13951;49.516;6.094;2023-03-14T04:03:21;8.60;99.90
26212;DHT22;13951;49.516;6.094;2023-03-14T04:06:13;8.60;99.90
26212;DHT22;13951;49.516;6.094;2023-03-14T04:08:50;8.60;99.90
26212;DHT22;13951;49.516;6.094;2023-03-14T04:11:36;8.60;99.90
26212;DHT22;13951;49.516;6.094;2023-03-14T04:14:27;8.60;99.90
26212;DHT22;13951;49.516;6.094;2023-03-14T04:17:14;8.60;99.90
26212;DHT22;13951;49.516;6.094;2023-03-14T04:19:47;8.60;99.90
26212;DHT22;13951;49.516;6.094;2023-03-14T04:22:25;8.60;99.90
26212;DHT22;13951;49.516;6.094;2023-03-14T04:24:59;8.60;99.90
26212;DHT22;13951;49.516;6.094;2023-03-14T04:27:32;8.60;99.90
26212;DHT22;13951;49.516;6.094;2023-03-14T04:30:07;8.60;99.90
26212;DHT22;13951;49.516;6.094;2023-03-14T04:32:51;8.60;99.90
26212;DHT22;13951;49.516;6.094;2023-03-14T04:35:26;8.70;99.90
26212;DHT22;13951;49.516;6.094;2023-03-14T04:38:04;8.60;99.90
26212;DHT22;13951;49.516;6.094;2023-03-14T04:40:39;8.60;99.90
26212;DHT22;13951;49.516;6.094;2023-03-14T04:43:13;8.60;99.90
26212;DHT22;13951;49.516;6.094;2023-03-14T04:45:57;8.60;99.90
26212;DHT22;13951;49.516;6.094;2023-03-14T04:48:30;8.60;99.90
26212;DHT22;13951;49.516;6.094;2023-03-14T04:51:05;8.70;99.90
26212;DHT22;13951;49.516;6.094;2023-03-14T04:53:39;8.60;99.90
26212;DHT22;13951;49.516;6.094;2023-03-14T04:56:15;8.60;99.90
26212;DHT22;13951;49.516;6.094;2023-03-14T04:58:49;8.60;99.90
26212;DHT22;13951;49.516;6.094;2023-03-14T05:01:23;8.70;99.90
26212;DHT22;13951;49.516;6.094;2023-03-14T05:04:15;8.60;99.90
26212;DHT22;13951;49.516;6.094;2023-03-14T05:07:17;8.60;99.90
26212;DHT22;13951;49.516;6.094;2023-03-14T05:09:56;8.70;99.90
26212;DHT22;13951;49.516;6.094;2023-03-14T05:12:49;8.60;99.90
26212;DHT22;13951;49.516;6.094;2023-03-14T05:15:36;8.60;99.90
26212;DHT22;13951;49.516;6.094;2023-03-14T05:18:19;8.60;99.90
26212;DHT22;13951;49.516;6.094;2023-03-14T05:21:12;8.60;99.90
26212;DHT22;13951;49.516;6.094;2023-03-14T05:24:10;8.60;99.90
26212;DHT22;13951;49.516;6.094;2023-03-14T05:27:03;8.60;99.90
26212;DHT22;13951;49.516;6.094;2023-03-14T05:30:04;8.60;99.90
26212;DHT22;13951;49.516;6.094;2023-03-14T05:32:55;8.60;99.90
26212;DHT22;13951;49.516;6.094;2023-03-14T05:35:54;8.60;99.90
26212;DHT22;13951;49.516;6.094;2023-03-14T05:38:51;8.60;99.90
26212;DHT22;13951;49.516;6.094;2023-03-14T05:41:33;8.60;99.90
26212;DHT22;13951;49.516;6.094;2023-03-14T05:44:22;8.60;99.90
26212;DHT22;13951;49.516;6.094;2023-03-14T05:47:05;8.60;99.90
26212;DHT22;13951;49.516;6.094;2023-03-14T05:50:10;8.60;99.90
26212;DHT22;13951;49.516;6.094;2023-03-14T05:53:07;8.60;99.90
26212;DHT22;13951;49.516;6.094;2023-03-14T05:56:07;8.70;99.90
26212;DHT22;13951;49.516;6.094;2023-03-14T05:58:50;8.60;99.90
26212;DHT22;13951;49.516;6.094;2023-03-14T06:01:43;8.70;99.90
26212;DHT22;13951;49.516;6.094;2023-03-14T06:04:21;8.60;99.90
26212;DHT22;13951;49.516;6.094;2023-03-14T06:06:59;8.70;99.90
26212;DHT22;13951;49.516;6.094;2023-03-14T06:09:32;8.70;99.90
26212;DHT22;13951;49.516;6.094;2023-03-14T06:12:07;8.70;99.90
26212;DHT22;13951;49.516;6.094;2023-03-14T06:14:45;8.70;99.90
26212;DHT22;13951;49.516;6.094;2023-03-14T06:17:19;8.70;99.90
26212;DHT22;13951;49.516;6.094;2023-03-14T06:20:01;8.70;99.90
26212;DHT22;13951;49.516;6.094;2023-03-14T06:22:36;8.70;99.90
26212;DHT22;13951;49.516;6.094;2023-03-14T06:25:09;8.70;99.90
26212;DHT22;13951;49.516;6.094;2023-03-14T06:27:42;8.70;99.90
26212;DHT22;13951;49.516;6.094;2023-03-14T06:30:15;8.80;99.90
26212;DHT22;13951;49.516;6.094;2023-03-14T06:32:49;8.80;99.90
26212;DHT22;13951;49.516;6.094;2023-03-14T06:35:23;8.80;99.90
26212;DHT22;13951;49.516;6.094;2023-03-14T06:37:56;8.80;99.90
26212;DHT22;13951;49.516;6.094;2023-03-14T06:40:29;8.80;99.90
26212;DHT22;13951;49.516;6.094;2023-03-14T06:43:07;8.80;99.90
26212;DHT22;13951;49.516;6.094;2023-03-14T06:45:43;8.80;99.90
26212;DHT22;13951;49.516;6.094;2023-03-14T06:48:16;8.90;99.90
26212;DHT22;13951;49.516;6.094;2023-03-14T06:50:54;8.90;99.90
26212;DHT22;13951;49.516;6.094;2023-03-14T06:53:27;8.90;99.90
26212;DHT22;13951;49.516;6.094;2023-03-14T06:56:02;8.90;99.90
26212;DHT22;13951;49.516;6.094;2023-03-14T06:58:37;8.90;99.90
26212;DHT22;13951;49.516;6.094;2023-03-14T07:01:38;8.90;99.90
26212;DHT22;13951;49.516;6.094;2023-03-14T07:04:14;8.90;99.90
26212;DHT22;13951;49.516;6.094;2023-03-14T07:06:51;9.00;99.90
26212;DHT22;13951;49.516;6.094;2023-03-14T07:09:24;9.00;99.90
26212;DHT22;13951;49.516;6.094;2023-03-14T07:12:03;9.10;99.90
26212;DHT22;13951;49.516;6.094;2023-03-14T07:14:36;9.10;99.90
26212;DHT22;13951;49.516;6.094;2023-03-14T07:17:09;9.10;99.90
26212;DHT22;13951;49.516;6.094;2023-03-14T07:19:42;9.10;99.90
26212;DHT22;13951;49.516;6.094;2023-03-14T07:22:15;9.10;99.90
26212;DHT22;13951;49.516;6.094;2023-03-14T07:24:48;9.10;99.90
26212;DHT22;13951;49.516;6.094;2023-03-14T07:27:21;9.10;99.90
26212;DHT22;13951;49.516;6.094;2023-03-14T07:29:54;9.10;99.90
26212;DHT22;13951;49.516;6.094;2023-03-14T07:32:27;9.10;99.90
26212;DHT22;13951;49.516;6.094;2023-03-14T07:35:00;9.10;99.90
26212;DHT22;13951;49.516;6.094;2023-03-14T07:37:33;9.10;99.90
26212;DHT22;13951;49.516;6.094;2023-03-14T07:40:08;9.10;99.90
26212;DHT22;13951;49.516;6.094;2023-03-14T07:42:43;9.10;99.90
26212;DHT22;13951;49.516;6.094;2023-03-14T07:45:21;9.10;99.90
26212;DHT22;13951;49.516;6.094;2023-03-14T07:47:56;9.10;99.90
26212;DHT22;13951;49.516;6.094;2023-03-14T07:50:30;9.10;99.90
26212;DHT22;13951;49.516;6.094;2023-03-14T07:53:02;9.10;99.90
26212;DHT22;13951;49.516;6.094;2023-03-14T07:55:35;9.10;99.90
26212;DHT22;13951;49.516;6.094;2023-03-14T07:58:08;9.10;99.90
26212;DHT22;13951;49.516;6.094;2023-03-14T08:00:41;9.10;99.90
26212;DHT22;13951;49.516;6.094;2023-03-14T08:03:14;9.20;99.90
26212;DHT22;13951;49.516;6.094;2023-03-14T08:05:48;9.20;99.90
26212;DHT22;13951;49.516;6.094;2023-03-14T08:08:21;9.20;99.90
26212;DHT22;13951;49.516;6.094;2023-03-14T08:10:53;9.20;99.90
26212;DHT22;13951;49.516;6.094;2023-03-14T08:13:26;9.20;99.90
26212;DHT22;13951;49.516;6.094;2023-03-14T08:15:59;9.20;99.90
26212;DHT22;13951;49.516;6.094;2023-03-14T08:18:32;9.20;99.90
26212;DHT22;13951;49.516;6.094;2023-03-14T08:21:05;9.20;99.90
26212;DHT22;13951;49.516;6.094;2023-03-14T08:23:38;9.20;99.90
26212;DHT22;13951;49.516;6.094;2023-03-14T08:26:10;9.20;99.90
26212;DHT22;13951;49.516;6.094;2023-03-14T08:28:43;9.20;99.90
26212;DHT22;13951;49.516;6.094;2023-03-14T08:31:16;9.30;99.90
26212;DHT22;13951;49.516;6.094;2023-03-14T08:33:50;9.30;99.90
26212;DHT22;13951;49.516;6.094;2023-03-14T08:36:24;9.30;99.90
26212;DHT22;13951;49.516;6.094;2023-03-14T08:38:57;9.30;99.90
26212;DHT22;13951;49.516;6.094;2023-03-14T08:41:30;9.40;99.90
26212;DHT22;13951;49.516;6.094;2023-03-14T08:44:03;9.40;99.90
26212;DHT22;13951;49.516;6.094;2023-03-14T08:46:36;9.40;99.90
26212;DHT22;13951;49.516;6.094;2023-03-14T08:49:09;9.40;99.90
26212;DHT22;13951;49.516;6.094;2023-03-14T08:51:41;9.50;99.90
26212;DHT22;13951;49.516;6.094;2023-03-14T08:54:14;9.50;99.90
26212;DHT22;13951;49.516;6.094;2023-03-14T08:56:47;9.50;99.90
26212;DHT22;13951;49.516;6.094;2023-03-14T08:59:19;9.60;99.90
26212;DHT22;13951;49.516;6.094;2023-03-14T09:01:52;9.40;99.90
26212;DHT22;13951;49.516;6.094;2023-03-14T09:04:27;9.30;99.90
26212;DHT22;13951;49.516;6.094;2023-03-14T09:06:59;9.20;99.90
26212;DHT22;13951;49.516;6.094;2023-03-14T09:09:33;9.10;99.90
26212;DHT22;13951;49.516;6.094;2023-03-14T09:12:06;9.00;99.90
26212;DHT22;13951;49.516;6.094;2023-03-14T09:14:39;8.90;99.90
26212;DHT22;13951;49.516;6.094;2023-03-14T09:17:12;8.90;99.90
26212;DHT22;13951;49.516;6.094;2023-03-14T09:19:45;8.80;99.90
26212;DHT22;13951;49.516;6.094;2023-03-14T09:22:17;8.80;99.90
26212;DHT22;13951;49.516;6.094;2023-03-14T09:24:51;8.70;99.90
26212;DHT22;13951;49.516;6.094;2023-03-14T09:27:24;8.70;99.90
26212;DHT22;13951;49.516;6.094;2023-03-14T09:29:57;8.70;99.90
26212;DHT22;13951;49.516;6.094;2023-03-14T09:32:30;8.60;99.90
26212;DHT22;13951;49.516;6.094;2023-03-14T09:35:04;8.60;99.90
26212;DHT22;13951;49.516;6.094;2023-03-14T09:37:37;8.60;99.90
26212;DHT22;13951;49.516;6.094;2023-03-14T09:40:15;8.60;99.90
26212;DHT22;13951;49.516;6.094;2023-03-14T09:42:53;8.60;99.90
26212;DHT22;13951;49.516;6.094;2023-03-14T09:45:34;8.60;99.90
26212;DHT22;13951;49.516;6.094;2023-03-14T09:48:24;8.60;99.90
26212;DHT22;13951;49.516;6.094;2023-03-14T09:51:05;8.60;99.90
26212;DHT22;13951;49.516;6.094;2023-03-14T09:53:42;8.50;99.90
26212;DHT22;13951;49.516;6.094;2023-03-14T09:56:24;8.50;99.90
26212;DHT22;13951;49.516;6.094;2023-03-14T09:59:03;8.40;99.90
26212;DHT22;13951;49.516;6.094;2023-03-14T10:01:37;8.30;99.90
26212;DHT22;13951;49.516;6.094;2023-03-14T10:04:13;8.30;99.90
26212;DHT22;13951;49.516;6.094;2023-03-14T10:06:47;8.20;99.90
26212;DHT22;13951;49.516;6.094;2023-03-14T10:09:23;8.10;99.90
26212;DHT22;13951;49.516;6.094;2023-03-14T10:11:58;8.00;99.90
26212;DHT22;13951;49.516;6.094;2023-03-14T10:14:50;7.90;99.90
26212;DHT22;13951;49.516;6.094;2023-03-14T10:17:23;7.90;99.90
26212;DHT22;13951;49.516;6.094;2023-03-14T10:19:58;8.10;99.90
26212;DHT22;13951;49.516;6.094;2023-03-14T10:22:32;8.20;99.90
26212;DHT22;13951;49.516;6.094;2023-03-14T10:25:06;8.40;99.90
26212;DHT22;13951;49.516;6.094;2023-03-14T10:27:56;8.50;99.90
26212;DHT22;13951;49.516;6.094;2023-03-14T10:30:45;8.60;99.90
26212;DHT22;13951;49.516;6.094;2023-03-14T10:35:59;8.60;99.90
26212;DHT22;13951;49.516;6.094;2023-03-14T10:38:35;8.70;99.90
26212;DHT22;13951;49.516;6.094;2023-03-14T10:41:26;8.80;99.90
26212;DHT22;13951;49.516;6.094;2023-03-14T10:44:00;8.80;99.90
26212;DHT22;13951;49.516;6.094;2023-03-14T10:46:33;8.80;99.90
26212;DHT22;13951;49.516;6.094;2023-03-14T10:49:30;8.80;99.90
26212;DHT22;13951;49.516;6.094;2023-03-14T10:52:17;9.00;99.90
26212;DHT22;13951;49.516;6.094;2023-03-14T10:55:10;9.00;99.90
26212;DHT22;13951;49.516;6.094;2023-03-14T10:57:43;9.00;99.90
26212;DHT22;13951;49.516;6.094;2023-03-14T11:00:19;8.90;99.90
26212;DHT22;13951;49.516;6.094;2023-03-14T11:03:01;8.90;99.90
26212;DHT22;13951;49.516;6.094;2023-03-14T11:08:56;9.10;99.90
26212;DHT22;13951;49.516;6.094;2023-03-14T11:11:29;9.60;99.90
26212;DHT22;13951;49.516;6.094;2023-03-14T11:17:35;10.00;99.90
26212;DHT22;13951;49.516;6.094;2023-03-14T11:20:35;9.70;99.90
26212;DHT22;13951;49.516;6.094;2023-03-14T11:29:08;9.80;99.90
26212;DHT22;13951;49.516;6.094;2023-03-14T11:31:27;9.70;99.90
26212;DHT22;13951;49.516;6.094;2023-03-14T11:34:17;9.50;99.90
26212;DHT22;13951;49.516;6.094;2023-03-14T11:37:07;9.30;99.90
26212;DHT22;13951;49.516;6.094;2023-03-14T11:39:50;8.90;99.90
26212;DHT22;13951;49.516;6.094;2023-03-14T11:42:25;8.80;99.90
26212;DHT22;13951;49.516;6.094;2023-03-14T11:45:01;9.10;99.90
26212;DHT22;13951;49.516;6.094;2023-03-14T11:47:42;9.50;99.90
26212;DHT22;13951;49.516;6.094;2023-03-14T11:50:18;9.80;99.90
26212;DHT22;13951;49.516;6.094;2023-03-14T11:52:57;10.00;99.90
26212;DHT22;13951;49.516;6.094;2023-03-14T11:55:33;10.30;99.90
26212;DHT22;13951;49.516;6.094;2023-03-14T11:58:25;10.60;99.90
26212;DHT22;13951;49.516;6.094;2023-03-14T12:01:08;10.80;99.90
26212;DHT22;13951;49.516;6.094;2023-03-14T12:04:09;10.70;99.90
26212;DHT22;13951;49.516;6.094;2023-03-14T12:07:19;10.40;99.90
26212;DHT22;13951;49.516;6.094;2023-03-14T12:09:53;10.00;99.90
26212;DHT22;13951;49.516;6.094;2023-03-14T12:12:28;9.90;99.90
26212;DHT22;13951;49.516;6.094;2023-03-14T12:15:03;9.80;99.90
26212;DHT22;13951;49.516;6.094;2023-03-14T12:17:39;10.10;99.90
26212;DHT22;13951;49.516;6.094;2023-03-14T12:22:56;11.90;99.90
26212;DHT22;13951;49.516;6.094;2023-03-14T12:25:32;12.60;99.90
26212;DHT22;13951;49.516;6.094;2023-03-14T12:30:50;12.20;99.90
26212;DHT22;13951;49.516;6.094;2023-03-14T12:33:27;11.80;99.90
26212;DHT22;13951;49.516;6.094;2023-03-14T12:36:02;11.40;99.90
26212;DHT22;13951;49.516;6.094;2023-03-14T12:41:15;10.90;99.90
26212;DHT22;13951;49.516;6.094;2023-03-14T12:43:49;10.70;99.90
26212;DHT22;13951;49.516;6.094;2023-03-14T12:46:26;10.60;99.90
26212;DHT22;13951;49.516;6.094;2023-03-14T12:51:40;10.60;99.90
26212;DHT22;13951;49.516;6.094;2023-03-14T13:00:00;10.30;99.90
26212;DHT22;13951;49.516;6.094;2023-03-14T13:02:41;10.10;99.90
26212;DHT22;13951;49.516;6.094;2023-03-14T13:05:16;10.00;99.90
26212;DHT22;13951;49.516;6.094;2023-03-14T13:10:42;9.60;99.90
26212;DHT22;13951;49.516;6.094;2023-03-14T13:13:20;9.60;99.90
26212;DHT22;13951;49.516;6.094;2023-03-14T13:15:59;9.60;99.90
26212;DHT22;13951;49.516;6.094;2023-03-14T13:18:39;9.70;99.90
26212;DHT22;13951;49.516;6.094;2023-03-14T13:21:19;9.70;99.90
26212;DHT22;13951;49.516;6.094;2023-03-14T13:24:04;9.60;99.90
26212;DHT22;13951;49.516;6.094;2023-03-14T13:26:39;9.60;99.90
26212;DHT22;13951;49.516;6.094;2023-03-14T13:29:19;9.70;99.90
26212;DHT22;13951;49.516;6.094;2023-03-14T13:32:00;9.90;99.90
26212;DHT22;13951;49.516;6.094;2023-03-14T13:34:34;10.00;99.90
26212;DHT22;13951;49.516;6.094;2023-03-14T13:37:21;10.20;99.90
26212;DHT22;13951;49.516;6.094;2023-03-14T13:39:56;10.30;99.90
26212;DHT22;13951;49.516;6.094;2023-03-14T13:42:29;10.40;99.90
26212;DHT22;13951;49.516;6.094;2023-03-14T13:45:03;10.40;99.90
26212;DHT22;13951;49.516;6.094;2023-03-14T13:47:38;10.50;99.90
26212;DHT22;13951;49.516;6.094;2023-03-14T13:50:20;10.60;99.90
26212;DHT22;13951;49.516;6.094;2023-03-14T13:52:57;10.50;99.90
26212;DHT22;13951;49.516;6.094;2023-03-14T13:55:30;10.50;99.90
26212;DHT22;13951;49.516;6.094;2023-03-14T13:58:03;10.60;99.90
26212;DHT22;13951;49.516;6.094;2023-03-14T14:00:36;10.40;99.90
26212;DHT22;13951;49.516;6.094;2023-03-14T14:03:10;10.30;99.90
26212;DHT22;13951;49.516;6.094;2023-03-14T14:05:44;10.20;99.90
26212;DHT22;13951;49.516;6.094;2023-03-14T14:08:17;10.20;99.90
26212;DHT22;13951;49.516;6.094;2023-03-14T14:10:53;10.20;99.90
26212;DHT22;13951;49.516;6.094;2023-03-14T14:13:29;10.30;99.90
26212;DHT22;13951;49.516;6.094;2023-03-14T14:16:04;10.30;99.90
26212;DHT22;13951;49.516;6.094;2023-03-14T14:18:37;10.30;99.90
26212;DHT22;13951;49.516;6.094;2023-03-14T14:21:11;10.20;99.90
26212;DHT22;13951;49.516;6.094;2023-03-14T14:23:45;10.20;99.90
26212;DHT22;13951;49.516;6.094;2023-03-14T14:26:19;10.30;99.90
26212;DHT22;13951;49.516;6.094;2023-03-14T14:29:04;10.30;99.90
26212;DHT22;13951;49.516;6.094;2023-03-14T14:31:37;10.30;99.90
26212;DHT22;13951;49.516;6.094;2023-03-14T14:34:19;10.30;99.90
26212;DHT22;13951;49.516;6.094;2023-03-14T14:36:52;10.30;99.90
26212;DHT22;13951;49.516;6.094;2023-03-14T14:39:26;10.30;99.90
26212;DHT22;13951;49.516;6.094;2023-03-14T14:42:01;10.30;99.90
26212;DHT22;13951;49.516;6.094;2023-03-14T14:44:35;10.30;99.90
26212;DHT22;13951;49.516;6.094;2023-03-14T14:47:13;10.30;99.90
26212;DHT22;13951;49.516;6.094;2023-03-14T14:49:47;10.20;99.90
26212;DHT22;13951;49.516;6.094;2023-03-14T14:52:33;10.20;99.90
26212;DHT22;13951;49.516;6.094;2023-03-14T14:55:19;10.10;99.90
26212;DHT22;13951;49.516;6.094;2023-03-14T14:57:54;9.90;99.90
26212;DHT22;13951;49.516;6.094;2023-03-14T15:00:28;9.80;99.90
26212;DHT22;13951;49.516;6.094;2023-03-14T15:03:01;9.80;99.90
26212;DHT22;13951;49.516;6.094;2023-03-14T15:05:34;9.70;99.90
26212;DHT22;13951;49.516;6.094;2023-03-14T15:08:11;9.80;99.90
26212;DHT22;13951;49.516;6.094;2023-03-14T15:10:44;9.90;99.90
26212;DHT22;13951;49.516;6.094;2023-03-14T15:13:17;9.90;99.90
26212;DHT22;13951;49.516;6.094;2023-03-14T15:15:50;9.90;99.90
26212;DHT22;13951;49.516;6.094;2023-03-14T15:18:29;9.90;99.90
26212;DHT22;13951;49.516;6.094;2023-03-14T15:21:03;9.90;99.90
26212;DHT22;13951;49.516;6.094;2023-03-14T15:23:36;10.00;99.90
26212;DHT22;13951;49.516;6.094;2023-03-14T15:26:15;10.10;99.90
26212;DHT22;13951;49.516;6.094;2023-03-14T15:28:48;10.10;99.90
26212;DHT22;13951;49.516;6.094;2023-03-14T15:31:21;10.10;99.90
26212;DHT22;13951;49.516;6.094;2023-03-14T15:33:54;10.00;99.90
26212;DHT22;13951;49.516;6.094;2023-03-14T15:36:29;9.90;99.90
26212;DHT22;13951;49.516;6.094;2023-03-14T15:39:05;9.90;99.90
26212;DHT22;13951;49.516;6.094;2023-03-14T15:41:38;9.70;99.90
26212;DHT22;13951;49.516;6.094;2023-03-14T15:44:11;9.70;99.90
26212;DHT22;13951;49.516;6.094;2023-03-14T15:46:44;9.50;99.90
26212;DHT22;13951;49.516;6.094;2023-03-14T15:49:16;9.40;99.90
26212;DHT22;13951;49.516;6.094;2023-03-14T15:51:49;9.30;99.90
26212;DHT22;13951;49.516;6.094;2023-03-14T15:54:22;9.00;99.90
26212;DHT22;13951;49.516;6.094;2023-03-14T15:56:56;8.80;99.90
26212;DHT22;13951;49.516;6.094;2023-03-14T15:59:29;8.50;99.90
26212;DHT22;13951;49.516;6.094;2023-03-14T16:02:04;8.20;99.90
26212;DHT22;13951;49.516;6.094;2023-03-14T16:04:41;8.00;99.90
26212;DHT22;13951;49.516;6.094;2023-03-14T16:07:15;7.90;99.90
26212;DHT22;13951;49.516;6.094;2023-03-14T16:09:50;7.80;99.90
26212;DHT22;13951;49.516;6.094;2023-03-14T16:12:30;7.60;99.90
26212;DHT22;13951;49.516;6.094;2023-03-14T16:15:06;7.50;99.90
26212;DHT22;13951;49.516;6.094;2023-03-14T16:17:40;7.40;99.90
26212;DHT22;13951;49.516;6.094;2023-03-14T16:20:18;7.40;99.90
26212;DHT22;13951;49.516;6.094;2023-03-14T16:23:01;7.40;99.90
26212;DHT22;13951;49.516;6.094;2023-03-14T16:25:39;7.30;99.90
26212;DHT22;13951;49.516;6.094;2023-03-14T16:28:14;7.30;99.90
26212;DHT22;13951;49.516;6.094;2023-03-14T16:30:48;7.30;99.90
26212;DHT22;13951;49.516;6.094;2023-03-14T16:33:28;7.30;99.90
26212;DHT22;13951;49.516;6.094;2023-03-14T16:36:04;7.30;99.90
26212;DHT22;13951;49.516;6.094;2023-03-14T16:38:44;7.20;99.90
26212;DHT22;13951;49.516;6.094;2023-03-14T16:41:21;7.20;99.90
26212;DHT22;13951;49.516;6.094;2023-03-14T16:44:05;7.20;99.90
26212;DHT22;13951;49.516;6.094;2023-03-14T16:46:41;7.20;99.90
26212;DHT22;13951;49.516;6.094;2023-03-14T16:49:18;7.10;99.90
26212;DHT22;13951;49.516;6.094;2023-03-14T16:51:52;7.10;99.90
26212;DHT22;13951;49.516;6.094;2023-03-14T16:54:26;7.10;99.90
26212;DHT22;13951;49.516;6.094;2023-03-14T16:57:00;7.10;99.90
26212;DHT22;13951;49.516;6.094;2023-03-14T16:59:35;7.10;99.90
26212;DHT22;13951;49.516;6.094;2023-03-14T17:02:11;7.10;99.90
26212;DHT22;13951;49.516;6.094;2023-03-14T17:04:46;7.10;99.90
26212;DHT22;13951;49.516;6.094;2023-03-14T17:07:19;7.10;99.90
26212;DHT22;13951;49.516;6.094;2023-03-14T17:09:55;7.10;99.90
26212;DHT22;13951;49.516;6.094;2023-03-14T17:12:34;7.10;99.90
26212;DHT22;13951;49.516;6.094;2023-03-14T17:15:09;7.10;99.90
26212;DHT22;13951;49.516;6.094;2023-03-14T17:17:44;7.00;99.90
26212;DHT22;13951;49.516;6.094;2023-03-14T17:20:21;7.00;99.90
26212;DHT22;13951;49.516;6.094;2023-03-14T17:22:57;7.00;99.90
26212;DHT22;13951;49.516;6.094;2023-03-14T17:25:34;7.00;99.90
26212;DHT22;13951;49.516;6.094;2023-03-14T17:28:09;7.00;99.90
26212;DHT22;13951;49.516;6.094;2023-03-14T17:30:45;7.00;99.90